Brooks, West Virginia
Current Conditions -  °F | °C
As of 5:51 PM on Saturday 25 Oct 2014 (Local Time) from KBKW Reporting Station
Overcast Overcast  
Wind Chill: 59°   Ceiling: 2500
Heat Index: 59°   Visibility: 10mi
Dew Point: 43°   Wind: 6mph
Humidity: 55%   Direction: 240°WSW
Pressure: 29.96"   Gusts: NA
Location:  37.6035°N, 80.8542°W
Report Text: KBKW 252151Z AUTO 24005KT 10SM OVC025 15/06 A2996 RMK AO2 SLP144 T01500061 TSNO
Loading
Personal Weather Stations






























Interactive Weather Map
Tropical Storm Tracking
New forecast layout! Learn more

10-Day Weather Forecast

Advertisements
Track Severe Weather on mobile